createdAt,value
2022-11-30T00:00:07.982Z,101469.66
2022-11-30T00:03:17.076Z,101469.75
2022-11-30T00:06:28.719Z,101469.91
2022-11-30T00:09:43.540Z,101468.41
2022-11-30T00:12:58.607Z,101461.59
2022-11-30T00:16:09.375Z,101450.91
2022-11-30T00:19:18.371Z,101452.97
2022-11-30T00:22:27.370Z,101451.72
2022-11-30T00:25:36.371Z,101449.97
2022-11-30T00:28:46.306Z,101448.63
2022-11-30T00:31:55.306Z,101452.81
2022-11-30T00:35:04.307Z,101447.84
2022-11-30T00:38:13.414Z,101444.66
2022-11-30T00:41:24.894Z,101460.81
2022-11-30T00:44:37.709Z,101463.25
2022-11-30T00:47:54.928Z,101458.03
2022-11-30T00:51:08.659Z,101449.41
2022-11-30T00:54:18.368Z,101458.38
2022-11-30T00:57:27.369Z,101454.03
2022-11-30T01:00:36.368Z,101456.41
2022-11-30T01:03:45.367Z,101462.88
2022-11-30T01:06:53.711Z,101461.13
2022-11-30T01:10:03.374Z,101463.03
2022-11-30T01:13:12.387Z,101455.84
2022-11-30T01:16:25.727Z,101462.41
2022-11-30T01:19:39.374Z,101461.16
2022-11-30T01:22:53.359Z,101460.34
2022-11-30T01:26:09.267Z,101460.97
2022-11-30T01:29:18.367Z,101445.41
2022-11-30T01:32:27.367Z,101445.69
2022-11-30T01:35:37.417Z,101437.94
2022-11-30T01:38:50.223Z,101441.91
2022-11-30T01:42:09.135Z,101441.44
2022-11-30T01:45:23.951Z,101447.47
2022-11-30T01:48:33.263Z,101455.03
2022-11-30T01:51:56.275Z,101459.31
2022-11-30T01:55:25.233Z,101464.63
2022-11-30T01:58:41.521Z,101471.91
2022-11-30T02:01:51.371Z,101469.63
2022-11-30T02:05:00.368Z,101468.28
2022-11-30T02:08:09.617Z,101461.16
2022-11-30T02:11:18.368Z,101465.16
2022-11-30T02:14:49.568Z,101466.84
2022-11-30T02:18:24.623Z,101470.25
2022-11-30T02:22:03.377Z,101474.94
2022-11-30T02:25:23.446Z,101472.06
2022-11-30T02:28:52.217Z,101465.75
2022-11-30T02:32:18.160Z,101471.19
2022-11-30T02:35:28.717Z,101462.47
2022-11-30T02:38:38.031Z,101474.25
2022-11-30T02:41:46.416Z,101468.25
2022-11-30T02:44:55.418Z,101463.59
2022-11-30T02:48:36.444Z,101469.28
2022-11-30T02:51:52.756Z,101463.50
2022-11-30T02:55:13.715Z,101464.16
2022-11-30T02:58:28.464Z,101460.19
2022-11-30T03:01:42.486Z,101469.63
2022-11-30T03:04:51.382Z,101470.63
2022-11-30T03:08:00.444Z,101475.16
2022-11-30T03:11:09.376Z,101475.06
2022-11-30T03:14:18.377Z,101475.31
2022-11-30T03:17:28.417Z,101470.38
2022-11-30T03:20:47.447Z,101465.41
2022-11-30T03:23:59.994Z,101462.88
2022-11-30T03:27:13.778Z,101456.22
2022-11-30T03:30:24.381Z,101475.75
2022-11-30T03:33:34.105Z,101484.06
2022-11-30T03:36:43.417Z,101481.22
2022-11-30T03:39:57.774Z,101468.63
2022-11-30T03:43:12.207Z,101468.09
2022-11-30T03:46:24.934Z,101466.38
2022-11-30T03:49:39.369Z,101467.38
2022-11-30T03:52:48.369Z,101472.25
2022-11-30T03:56:09.390Z,101472.84
2022-11-30T03:59:22.991Z,101471.72
2022-11-30T04:02:41.544Z,101468.31
2022-11-30T04:05:56.974Z,101473.88
2022-11-30T04:09:14.382Z,101467.28
2022-11-30T04:12:24.368Z,101465.38
2022-11-30T04:15:33.370Z,101463.88
2022-11-30T04:18:42.370Z,101464.38
2022-11-30T04:21:52.305Z,101455.41
2022-11-30T04:25:01.718Z,101452.63
2022-11-30T04:28:10.720Z,101457.31
2022-11-30T04:31:19.329Z,101453.94
2022-11-30T04:34:29.169Z,101457.66
2022-11-30T04:37:37.410Z,101456.59
2022-11-30T04:40:46.307Z,101463.16
2022-11-30T04:43:55.306Z,101468.19
2022-11-30T04:47:03.580Z,101466.97
2022-11-30T04:50:12.580Z,101461.69
2022-11-30T04:53:21.378Z,101463.75
2022-11-30T04:56:30.369Z,101463.53
2022-11-30T04:59:39.371Z,101462.84
2022-11-30T05:02:52.921Z,101456.63
2022-11-30T05:06:07.985Z,101464.50
2022-11-30T05:09:22.928Z,101465.63
2022-11-30T05:12:35.954Z,101452.63
2022-11-30T05:15:45.403Z,101464.06
2022-11-30T05:18:54.371Z,101462.22
2022-11-30T05:22:03.368Z,101475.69
2022-11-30T05:25:13.304Z,101474.09
2022-11-30T05:28:22.487Z,101481.38
2022-11-30T05:31:31.337Z,101476.41
2022-11-30T05:34:50.206Z,101475.94
2022-11-30T05:38:04.306Z,101480.13
2022-11-30T05:41:18.369Z,101468.19
2022-11-30T05:44:27.405Z,101470.03
2022-11-30T05:47:36.513Z,101468.41
2022-11-30T05:50:45.657Z,101465.34
2022-11-30T06:02:23.685Z,101467.44
2022-11-30T06:32:45.534Z,101481.88
2022-11-30T06:35:54.673Z,101482.19
2022-11-30T06:39:04.747Z,101493.06
2022-11-30T06:42:13.246Z,101479.28
2022-11-30T06:51:10.047Z,101494.31
2022-11-30T06:59:00.161Z,101495.25
2022-11-30T07:06:10.764Z,101492.44
2022-11-30T07:10:35.402Z,101493.88
2022-11-30T07:13:48.637Z,101495.44
2022-11-30T07:16:55.700Z,101505.88
2022-11-30T07:20:06.580Z,101506.94
2022-11-30T07:23:56.335Z,101489.47
2022-11-30T07:27:13.279Z,101496.94
2022-11-30T07:34:21.539Z,101502.97
2022-11-30T07:41:01.191Z,101496.63
2022-11-30T07:44:10.429Z,101495.84
2022-11-30T07:47:23.514Z,101505.03
2022-11-30T07:50:32.122Z,101501.16
2022-11-30T08:00:58.714Z,101511.09
2022-11-30T08:04:29.284Z,101510.72
2022-11-30T08:08:19.916Z,101512.53
2022-11-30T08:11:48.506Z,101527.13
2022-11-30T08:18:41.909Z,101546.06
2022-11-30T08:22:01.477Z,101545.50
2022-11-30T08:25:26.077Z,101544.78
2022-11-30T08:28:39.758Z,101537.41
2022-11-30T08:47:09.612Z,101524.72
2022-11-30T08:50:39.670Z,101527.56
2022-11-30T09:05:35.830Z,101543.19
2022-11-30T09:12:23.350Z,101533.38
2022-11-30T09:15:38.427Z,101521.41
2022-11-30T09:18:45.505Z,101530.69
2022-11-30T09:21:56.594Z,101523.38
2022-11-30T09:25:06.339Z,101527.75
2022-11-30T09:28:14.653Z,101526.06
2022-11-30T09:31:23.336Z,101525.09
2022-11-30T09:37:55.007Z,101512.84
2022-11-30T09:45:38.060Z,101511.56
2022-11-30T09:49:31.412Z,101510.72
2022-11-30T10:36:03.631Z,101490.03
2022-11-30T10:40:07.055Z,101485.25
2022-11-30T10:49:24.900Z,101487.34
2022-11-30T10:53:10.541Z,101482.38
2022-11-30T10:56:18.603Z,101490.31
2022-11-30T11:03:31.649Z,101507.19
2022-11-30T11:06:41.858Z,101505.91
2022-11-30T11:10:18.079Z,101499.97
2022-11-30T11:13:43.247Z,101492.19
2022-11-30T11:17:03.391Z,101490.72
2022-11-30T11:20:45.598Z,101491.59
2022-11-30T11:24:10.503Z,101475.81
2022-11-30T11:27:38.593Z,101479.78
2022-11-30T11:35:06.106Z,101481.06
2022-11-30T11:38:58.034Z,101489.84
2022-11-30T11:46:19.316Z,101458.75
2022-11-30T11:53:47.596Z,101448.72
2022-11-30T12:21:35.790Z,101457.38
2022-11-30T12:25:57.008Z,101467.41
2022-11-30T12:44:32.645Z,101446.56
2022-11-30T13:09:47.299Z,101453.97
2022-11-30T13:13:02.369Z,101450.06
2022-11-30T13:16:12.725Z,101457.44
2022-11-30T13:20:02.331Z,101458.16
2022-11-30T13:23:12.759Z,101457.56
2022-11-30T13:26:41.678Z,101450.47
2022-11-30T13:30:23.666Z,101446.56
2022-11-30T13:37:36.045Z,101451.53
2022-11-30T13:41:26.512Z,101448.41
2022-11-30T13:48:53.062Z,101447.34
2022-11-30T13:52:23.214Z,101447.88
2022-11-30T13:56:29.976Z,101454.88
2022-11-30T14:01:10.725Z,101460.16
2022-11-30T14:09:22.524Z,101453.44
2022-11-30T14:16:42.516Z,101458.50
2022-11-30T14:20:37.746Z,101458.19
2022-11-30T14:24:27.098Z,101467.00
2022-11-30T14:27:57.120Z,101468.53
2022-11-30T14:34:59.074Z,101437.22
2022-11-30T14:38:38.003Z,101449.34
2022-11-30T14:46:21.481Z,101450.75
2022-11-30T14:49:36.783Z,101459.31
2022-11-30T14:53:20.789Z,101463.63
2022-11-30T15:00:24.913Z,101455.13
2022-11-30T15:07:09.216Z,101448.63
2022-11-30T15:10:31.568Z,101456.72
2022-11-30T15:17:17.666Z,101440.16
2022-11-30T15:20:33.441Z,101434.59
2022-11-30T15:23:49.427Z,101434.81
2022-11-30T15:27:11.452Z,101436.41
2022-11-30T15:30:22.160Z,101431.06
2022-11-30T15:33:35.411Z,101437.97
2022-11-30T15:36:42.626Z,101434.81
2022-11-30T15:40:01.275Z,101431.91
2022-11-30T15:43:28.517Z,101432.16
2022-11-30T15:46:46.540Z,101439.50
2022-11-30T15:50:00.913Z,101429.97
2022-11-30T15:53:58.329Z,101428.91
2022-11-30T15:57:10.367Z,101424.19
2022-11-30T16:00:23.182Z,101432.28
2022-11-30T16:03:29.715Z,101432.03
2022-11-30T16:06:52.853Z,101446.94
2022-11-30T16:10:09.105Z,101458.41
2022-11-30T16:13:23.567Z,101455.59
2022-11-30T16:16:42.305Z,101451.38
2022-11-30T16:19:55.371Z,101454.00
2022-11-30T16:23:06.085Z,101449.72
2022-11-30T16:30:00.102Z,101445.22
2022-11-30T16:33:15.119Z,101452.22
2022-11-30T16:36:30.068Z,101458.19
2022-11-30T16:39:47.140Z,101449.28
2022-11-30T16:43:01.366Z,101462.38
2022-11-30T16:46:22.574Z,101456.44
2022-11-30T16:49:40.160Z,101454.00
2022-11-30T16:52:50.097Z,101456.84
2022-11-30T16:55:59.098Z,101458.34
2022-11-30T16:59:10.884Z,101455.53
2022-11-30T17:02:33.619Z,101454.00
2022-11-30T17:05:46.368Z,101450.25
2022-11-30T17:08:55.681Z,101448.53
2022-11-30T17:12:04.576Z,101446.47
2022-11-30T17:15:29.553Z,101446.88
2022-11-30T17:18:43.373Z,101456.28
2022-11-30T17:21:52.683Z,101447.19
2022-11-30T17:25:01.368Z,101441.41
2022-11-30T17:28:10.368Z,101437.78
2022-11-30T17:31:19.478Z,101431.19
2022-11-30T17:34:38.638Z,101431.34
2022-11-30T17:37:55.661Z,101445.69
2022-11-30T17:41:15.634Z,101439.28
2022-11-30T17:44:32.496Z,101441.19
2022-11-30T17:47:45.552Z,101440.78
2022-11-30T17:50:56.118Z,101447.59
2022-11-30T17:54:04.368Z,101447.25
2022-11-30T17:57:14.093Z,101433.69
2022-11-30T18:00:22.885Z,101435.44
2022-11-30T18:06:55.442Z,101443.28
2022-11-30T18:10:08.949Z,101429.06
2022-11-30T18:13:19.372Z,101440.94
2022-11-30T18:16:29.430Z,101440.06
2022-11-30T18:19:47.503Z,101421.69
2022-11-30T18:23:03.791Z,101425.34
2022-11-30T18:26:18.400Z,101434.47
2022-11-30T18:29:36.014Z,101422.94
2022-11-30T18:32:55.571Z,101436.91
2022-11-30T18:36:15.117Z,101431.22
2022-11-30T18:39:30.481Z,101410.06
2022-11-30T18:42:43.371Z,101426.38
2022-11-30T18:45:52.663Z,101426.63
2022-11-30T18:49:07.278Z,101433.75
2022-11-30T18:52:27.954Z,101438.72
2022-11-30T18:56:01.269Z,101440.78
2022-11-30T18:59:20.110Z,101442.38
2022-11-30T19:02:38.807Z,101449.16
2022-11-30T19:05:49.372Z,101449.63
2022-11-30T19:08:59.310Z,101449.72
2022-11-30T19:12:08.416Z,101438.97
2022-11-30T19:15:21.041Z,101453.16
2022-11-30T19:18:38.735Z,101451.34
2022-11-30T19:21:55.372Z,101461.16
2022-11-30T19:25:04.892Z,101468.44
2022-11-30T19:28:13.371Z,101467.09
2022-11-30T19:31:31.758Z,101466.22
2022-11-30T19:34:50.740Z,101476.34
2022-11-30T19:38:05.273Z,101475.56
2022-11-30T19:41:22.391Z,101473.97
2022-11-30T19:44:40.367Z,101471.19
2022-11-30T19:47:49.370Z,101471.44
2022-11-30T19:50:58.370Z,101491.47
2022-11-30T19:54:07.473Z,101490.34
2022-11-30T19:57:17.611Z,101493.44
2022-11-30T20:00:33.839Z,101485.13
2022-11-30T20:03:49.391Z,101487.19
2022-11-30T20:07:04.371Z,101482.97
2022-11-30T20:10:17.678Z,101489.72
2022-11-30T20:13:36.495Z,101500.63
2022-11-30T20:16:52.368Z,101509.94
2022-11-30T20:20:01.372Z,101524.81
2022-11-30T20:23:11.098Z,101527.13
2022-11-30T20:26:30.057Z,101531.44
2022-11-30T20:29:45.840Z,101532.69
2022-11-30T20:32:58.369Z,101535.06
2022-11-30T20:36:08.411Z,101524.63
2022-11-30T20:39:20.883Z,101525.31
2022-11-30T20:42:35.313Z,101532.66
2022-11-30T20:45:54.450Z,101549.66
2022-11-30T20:49:05.308Z,101554.16
2022-11-30T20:52:14.405Z,101554.84
2022-11-30T20:55:27.253Z,101545.56
2022-11-30T20:58:42.801Z,101558.31
2022-11-30T21:01:56.355Z,101546.47
2022-11-30T21:05:10.369Z,101537.06
2022-11-30T21:08:19.366Z,101521.00
2022-11-30T21:11:28.365Z,101526.50
2022-11-30T21:14:38.405Z,101528.66
2022-11-30T21:17:47.308Z,101526.63
2022-11-30T21:21:09.748Z,101521.41
2022-11-30T21:24:25.160Z,101522.78
2022-11-30T21:27:34.366Z,101526.25
2022-11-30T21:30:44.344Z,101523.22
2022-11-30T21:33:54.653Z,101525.25
2022-11-30T21:37:03.031Z,101519.78
2022-11-30T21:40:11.717Z,101518.28
2022-11-30T21:43:20.302Z,101516.94
2022-11-30T21:46:32.993Z,101513.97
2022-11-30T21:49:45.777Z,101518.56
2022-11-30T21:53:00.213Z,101511.38
2022-11-30T21:56:16.367Z,101516.72
2022-11-30T21:59:25.371Z,101509.69
2022-11-30T22:02:34.397Z,101522.97
2022-11-30T22:05:43.365Z,101519.91
2022-11-30T22:08:52.371Z,101527.97
2022-11-30T22:12:01.368Z,101528.75
2022-11-30T22:15:10.369Z,101531.84
2022-11-30T22:18:19.570Z,101534.81
2022-11-30T22:21:32.946Z,101540.16
2022-11-30T22:24:41.906Z,101553.59
2022-11-30T22:27:50.639Z,101552.41
2022-11-30T22:30:57.132Z,101549.84
2022-11-30T22:34:09.140Z,101558.25
2022-11-30T22:37:17.975Z,101549.84
2022-11-30T22:40:24.078Z,101559.84
2022-11-30T22:43:32.304Z,101565.13
2022-11-30T22:46:41.794Z,101560.78
2022-11-30T22:49:56.969Z,101559.78
2022-11-30T22:53:08.755Z,101576.63
2022-11-30T22:56:28.426Z,101562.94
2022-11-30T22:59:37.367Z,101560.50
2022-11-30T23:02:58.218Z,101568.56
2022-11-30T23:06:12.480Z,101563.75
2022-11-30T23:09:25.367Z,101564.69
2022-11-30T23:12:57.925Z,101574.09
2022-11-30T23:16:13.865Z,101570.47
2022-11-30T23:19:27.824Z,101564.53
2022-11-30T23:22:42.671Z,101558.69
2022-11-30T23:25:52.367Z,101556.09
2022-11-30T23:29:06.098Z,101558.53
2022-11-30T23:32:21.336Z,101569.09
2022-11-30T23:35:35.093Z,101565.91
2022-11-30T23:38:49.372Z,101568.16
2022-11-30T23:41:58.367Z,101553.41
2022-11-30T23:45:07.680Z,101550.44
2022-11-30T23:48:17.716Z,101550.88
2022-11-30T23:51:26.722Z,101542.06
2022-11-30T23:54:35.308Z,101542.38
2022-11-30T23:57:44.199Z,101544.88
